Archimede — IXZR — position and weather

sailwx.info

Track history (hours):
 
Tides and Currents Weather Stations Pressure Air Temp Water Temp Dewpoint Dewpoint Depression Visibility Wind Speed Wind Dir Waves Ship Positions

Archimede

Last reported at 2014-Sep-13 07:31 UTC. Time now 2014-Sep-19 21:54 UTC.
Position N 38°11' E 015°35'.

; draft 3.1 m.

Type: Passenger vessel. MMSI: 247054700.

Date/timePositionNaut miles runAvg speedWind from/ knotsBaromVisibWave heightAir tempDewpointWater temp
2014-Sep-13 07:31N 38°11' E 015°35'1 0.4
2014-Sep-13 05:33N 38°10' E 015°34'1 0.1
2014-Sep-12 17:14N 38°09' E 015°34'5 7.3
2014-Sep-12 16:33N 38°13' E 015°37'1 0.6
2014-Sep-12 14:32N 38°13' E 015°36'2 0.9
2014-Sep-12 12:33N 38°11' E 015°35'2 0.1
2014-Sep-11 08:32N 38°13' E 015°37'1 0.9
2014-Sep-11 07:32N 38°12' E 015°37'4 3.8
2014-Sep-11 06:23N 38°09' E 015°33'6 6.8
2014-Sep-11 05:33N 38°13' E 015°38'2 2.1
2014-Sep-11 04:25N 38°13' E 015°35'2 1.3
2014-Sep-11 02:33N 38°13' E 015°38'1 1.1
2014-Sep-11 01:29N 38°14' E 015°37'2 1.4
2014-Sep-11 00:20N 38°13' E 015°35'0 0.5
2014-Sep-10 23:24N 38°13' E 015°34'3 3.6
2014-Sep-10 22:33N 38°13' E 015°38'1 1.1
2014-Sep-10 21:31N 38°14' E 015°37'2 0.9
2014-Sep-10 19:22N 38°13' E 015°34'3 3.6
2014-Sep-10 18:33N 38°13' E 015°38'2 0.8
2014-Sep-10 16:30N 38°13' E 015°36'3 1.6
2014-Sep-10 14:32N 38°10' E 015°34'5 4.7
2014-Sep-10 13:33N 38°13' E 015°38'1 0.6
2014-Sep-10 11:19N 38°13' E 015°36'1 1.8
2014-Sep-10 10:33N 38°13' E 015°38'0 0.0
2014-Sep-10 09:33N 38°13' E 015°38'0 0.0
2014-Sep-10 08:33N 38°13' E 015°38'0 0.5
2014-Sep-10 07:33N 38°13' E 015°37'5 4.6
2014-Sep-10 06:25N 38°09' E 015°33'5 0.4
2014-Sep-09 19:23N 38°13' E 015°36'2 2.2
2014-Sep-09 18:33N 38°13' E 015°38'2 0.9
2014-Sep-09 16:32N 38°12' E 015°36'2 1.1
2014-Sep-09 14:25N 38°10' E 015°34'4 4.9
2014-Sep-09 13:33N 38°13' E 015°38'0 0.1
2014-Sep-09 11:10N 38°13' E 015°38'0 0.4
2014-Sep-09 10:32N 38°13' E 015°38'2 1.1
2014-Sep-09 08:33N 38°12' E 015°36'2 1.8
2014-Sep-09 07:33N 38°13' E 015°38'5 4.2
2014-Sep-09 06:19N 38°09' E 015°34'5 6.9
2014-Sep-09 05:32N 38°13' E 015°38'0 0.0
2014-Sep-08 19:07N 38°13' E 015°38'0 0.0
2014-Sep-08 18:34N 38°13' E 015°38'4 1.8
2014-Sep-08 16:34N 38°11' E 015°35'2 1.4
2014-Sep-08 15:30N 38°11' E 015°37'3 2.2
2014-Sep-08 14:19N 38°09' E 015°34'5 6.4
2014-Sep-08 13:34N 38°13' E 015°38'0 0.0
2014-Sep-07 15:34N 38°13' E 015°38'5 4.0
2014-Sep-07 14:15N 38°09' E 015°34'5 7.5
2014-Sep-07 13:32N 38°14' E 015°38'4 2.1
2014-Sep-07 11:33N 38°10' E 015°34'4 4.2
2014-Sep-07 10:33N 38°13' E 015°38'1 0.9
2014-Sep-07 09:34N 38°13' E 015°37'1 0.4
2014-Sep-07 07:32N 38°13' E 015°36'2 0.1
2014-Sep-06 17:34N 38°13' E 015°38'0 0.0
2014-Sep-06 16:34N 38°13' E 015°38'0 0.0
2014-Sep-06 15:34N 38°13' E 015°38'0 0.0
2014-Sep-06 14:33N 38°13' E 015°38'1 0.3
2014-Sep-06 12:33N 38°14' E 015°37'2 1.7
2014-Sep-06 11:16N 38°13' E 015°35'3 3.7
2014-Sep-06 10:33N 38°13' E 015°38'1 0.7
2014-Sep-06 09:11N 38°13' E 015°37'3 5.1
2014-Sep-06 08:32N 38°10' E 015°37'3 2.2
2014-Sep-06 07:15N 38°09' E 015°34'6 8.0
2014-Sep-06 06:34N 38°13' E 015°38'5 0.3
2014-Sep-05 14:28N 38°09' E 015°34'5 5.7
2014-Sep-05 13:33N 38°13' E 015°38'2 0.9
2014-Sep-05 11:25N 38°12' E 015°36'2 2.2
2014-Sep-05 10:33N 38°13' E 015°38'5 2.4
2014-Sep-05 08:30N 38°09' E 015°34'5 5.3
2014-Sep-05 07:33N 38°13' E 015°38'5 3.6
2014-Sep-05 06:05N 38°09' E 015°34'4 0.3
2014-Sep-04 15:31N 38°12' E 015°37'5 3.9
2014-Sep-04 14:17N 38°09' E 015°33'6 8.5
2014-Sep-04 13:33N 38°13' E 015°38'4 2.2
2014-Sep-04 11:31N 38°10' E 015°34'4 4.6
2014-Sep-04 10:34N 38°13' E 015°38'3 0.5
2014-Sep-04 04:27N 38°13' E 015°35'3 1.5
2014-Sep-04 02:34N 38°13' E 015°38'2 1.6
2014-Sep-04 01:32N 38°13' E 015°36'1 1.1
2014-Sep-04 00:19N 38°13' E 015°34'3 1.7
2014-Sep-03 22:34N 38°13' E 015°38'1 0.9
2014-Sep-03 21:28N 38°13' E 015°37'1 0.5
2014-Sep-03 19:34N 38°13' E 015°38'0 0.0
2014-Sep-03 18:34N 38°13' E 015°38'0 0.0
2014-Sep-03 17:34N 38°13' E 015°38'3 3.2
2014-Sep-03 16:31N 38°10' E 015°37'3 2.4
2014-Sep-03 15:23N 38°09' E 015°34'5 6.4
2014-Sep-03 14:34N 38°13' E 015°38'  
Track history (hours):
 
Tides and Currents Weather Stations Pressure Air Temp Water Temp Dewpoint Dewpoint Depression Visibility Wind Speed Wind Dir Waves Ship Positions

Archimede

Last reported at 2014-Sep-13 07:31 UTC. Time now 2014-Sep-19 21:54 UTC.
Position N 38°11' E 015°35'.

; draft 3.1 m.

Type: Passenger vessel. MMSI: 247054700.

Date/timePositionNaut miles runAvg speedWind from/ knotsBaromVisibWave heightAir tempDewpointWater temp
2014-Sep-13 07:31N 38°11' E 015°35'1 0.4
2014-Sep-13 05:33N 38°10' E 015°34'1 0.1
2014-Sep-12 17:14N 38°09' E 015°34'5 7.3
2014-Sep-12 16:33N 38°13' E 015°37'1 0.6
2014-Sep-12 14:32N 38°13' E 015°36'2 0.9
2014-Sep-12 12:33N 38°11' E 015°35'2 0.1
2014-Sep-11 08:32N 38°13' E 015°37'1 0.9
2014-Sep-11 07:32N 38°12' E 015°37'4 3.8
2014-Sep-11 06:23N 38°09' E 015°33'6 6.8
2014-Sep-11 05:33N 38°13' E 015°38'2 2.1
2014-Sep-11 04:25N 38°13' E 015°35'2 1.3
2014-Sep-11 02:33N 38°13' E 015°38'1 1.1
2014-Sep-11 01:29N 38°14' E 015°37'2 1.4
2014-Sep-11 00:20N 38°13' E 015°35'0 0.5
2014-Sep-10 23:24N 38°13' E 015°34'3 3.6
2014-Sep-10 22:33N 38°13' E 015°38'1 1.1
2014-Sep-10 21:31N 38°14' E 015°37'2 0.9
2014-Sep-10 19:22N 38°13' E 015°34'3 3.6
2014-Sep-10 18:33N 38°13' E 015°38'2 0.8
2014-Sep-10 16:30N 38°13' E 015°36'3 1.6
2014-Sep-10 14:32N 38°10' E 015°34'5 4.7
2014-Sep-10 13:33N 38°13' E 015°38'1 0.6
2014-Sep-10 11:19N 38°13' E 015°36'1 1.8
2014-Sep-10 10:33N 38°13' E 015°38'0 0.0
2014-Sep-10 09:33N 38°13' E 015°38'0 0.0
2014-Sep-10 08:33N 38°13' E 015°38'0 0.5
2014-Sep-10 07:33N 38°13' E 015°37'5 4.6
2014-Sep-10 06:25N 38°09' E 015°33'5 0.4
2014-Sep-09 19:23N 38°13' E 015°36'2 2.2
2014-Sep-09 18:33N 38°13' E 015°38'2 0.9
2014-Sep-09 16:32N 38°12' E 015°36'2 1.1
2014-Sep-09 14:25N 38°10' E 015°34'4 4.9
2014-Sep-09 13:33N 38°13' E 015°38'0 0.1
2014-Sep-09 11:10N 38°13' E 015°38'0 0.4
2014-Sep-09 10:32N 38°13' E 015°38'2 1.1
2014-Sep-09 08:33N 38°12' E 015°36'2 1.8
2014-Sep-09 07:33N 38°13' E 015°38'5 4.2
2014-Sep-09 06:19N 38°09' E 015°34'5 6.9
2014-Sep-09 05:32N 38°13' E 015°38'0 0.0
2014-Sep-08 19:07N 38°13' E 015°38'0 0.0
2014-Sep-08 18:34N 38°13' E 015°38'4 1.8
2014-Sep-08 16:34N 38°11' E 015°35'2 1.4
2014-Sep-08 15:30N 38°11' E 015°37'3 2.2
2014-Sep-08 14:19N 38°09' E 015°34'5 6.4
2014-Sep-08 13:34N 38°13' E 015°38'0 0.0
2014-Sep-07 15:34N 38°13' E 015°38'5 4.0
2014-Sep-07 14:15N 38°09' E 015°34'5 7.5
2014-Sep-07 13:32N 38°14' E 015°38'4 2.1
2014-Sep-07 11:33N 38°10' E 015°34'4 4.2
2014-Sep-07 10:33N 38°13' E 015°38'1 0.9
2014-Sep-07 09:34N 38°13' E 015°37'1 0.4
2014-Sep-07 07:32N 38°13' E 015°36'2 0.1
2014-Sep-06 17:34N 38°13' E 015°38'0 0.0
2014-Sep-06 16:34N 38°13' E 015°38'0 0.0
2014-Sep-06 15:34N 38°13' E 015°38'0 0.0
2014-Sep-06 14:33N 38°13' E 015°38'1 0.3
2014-Sep-06 12:33N 38°14' E 015°37'2 1.7
2014-Sep-06 11:16N 38°13' E 015°35'3 3.7
2014-Sep-06 10:33N 38°13' E 015°38'1 0.7
2014-Sep-06 09:11N 38°13' E 015°37'3 5.1
2014-Sep-06 08:32N 38°10' E 015°37'3 2.2
2014-Sep-06 07:15N 38°09' E 015°34'6 8.0
2014-Sep-06 06:34N 38°13' E 015°38'5 0.3
2014-Sep-05 14:28N 38°09' E 015°34'5 5.7
2014-Sep-05 13:33N 38°13' E 015°38'2 0.9
2014-Sep-05 11:25N 38°12' E 015°36'2 2.2
2014-Sep-05 10:33N 38°13' E 015°38'5 2.4
2014-Sep-05 08:30N 38°09' E 015°34'5 5.3
2014-Sep-05 07:33N 38°13' E 015°38'5 3.6
2014-Sep-05 06:05N 38°09' E 015°34'4 0.3
2014-Sep-04 15:31N 38°12' E 015°37'5 3.9
2014-Sep-04 14:17N 38°09' E 015°33'6 8.5
2014-Sep-04 13:33N 38°13' E 015°38'4 2.2
2014-Sep-04 11:31N 38°10' E 015°34'4 4.6
2014-Sep-04 10:34N 38°13' E 015°38'3 0.5
2014-Sep-04 04:27N 38°13' E 015°35'3 1.5
2014-Sep-04 02:34N 38°13' E 015°38'2 1.6
2014-Sep-04 01:32N 38°13' E 015°36'1 1.1
2014-Sep-04 00:19N 38°13' E 015°34'3 1.7
2014-Sep-03 22:34N 38°13' E 015°38'1 0.9
2014-Sep-03 21:28N 38°13' E 015°37'1 0.5
2014-Sep-03 19:34N 38°13' E 015°38'0 0.0
2014-Sep-03 18:34N 38°13' E 015°38'0 0.0
2014-Sep-03 17:34N 38°13' E 015°38'3 3.2
2014-Sep-03 16:31N 38°10' E 015°37'3 2.4
2014-Sep-03 15:23N 38°09' E 015°34'5 6.4
2014-Sep-03 14:34N 38°13' E 015°38'  

Dump ship's entire track history